Tuesday, January 15, 2019, 6:26 PM EST
Back to Local

KBID, Block Island, Block Island State Airport

Location: Block Island, RI, United States Lat: 41.167
Local Time: 6:26 PM EST (23:26 GMT) Lon: -71.567
Time Zone: US/Eastern Elev: 108 ft

Show me the last for .
Show Decoded

2019-01-15 17:56 METAR KBID 152256Z AUTO 33006KT 10SM CLR 01/M08 A3010 RMK AO2 SLP196 T00061083
                 FZRANO =
2019-01-15 16:56 METAR KBID 152156Z AUTO 31004KT 10SM CLR 01/M08 A3008 RMK AO2 SLP190 T00061083
                 FZRANO =
2019-01-15 15:56 METAR KBID 152056Z AUTO 10SM CLR 02/M09 RMK AO2 SLPNO 6//// T00171089 FZRANO $ =
2019-01-15 14:56 METAR KBID 151956Z AUTO 31006KT 10SM CLR 02/M10 A3008 RMK AO2 SLP189 T00171100
                 FZRANO =
2019-01-15 13:56 METAR KBID 151856Z AUTO 29008KT 270V340 10SM CLR 02/M10 A3007 RMK AO2 SLP186
                 T00171100 FZRANO =
2019-01-15 12:56 METAR KBID 151756Z AUTO 32010G14KT 10SM CLR 01/M11 A3006 RMK AO2 SLP185 6////
                 T00061106 10011 21033 58019 FZRANO =
2019-01-15 11:56 METAR KBID 151656Z AUTO 28009KT 10SM CLR 01/M11 A3008 RMK AO2 SLP191 T00061106
                 FZRANO =
2019-01-15 10:56 METAR KBID 151556Z AUTO 30006KT 10SM CLR M01/M09 A3011 RMK AO2 SLP200 T10061094
                 FZRANO =
2019-01-15 09:56 METAR KBID 151456Z AUTO 33006KT 10SM CLR M01/M10 A3012 RMK AO2 SLP204 6////
                 T10061100 FZRANO =
2019-01-15 08:56 METAR KBID 151356Z AUTO 33005KT 10SM CLR M01/M10 RMK AO2 SLPNO T10111100 FZRANO
                 $ =
2019-01-15 07:56 METAR KBID 151256Z AUTO 34007KT 10SM CLR M02/M10 A3009 RMK AO2 SLP193 T10221100
                 FZRANO =
2019-01-15 05:56 METAR KBID 151056Z AUTO 33006KT 10SM CLR M03/M10 A3006 RMK AO2 SLP185 T10281100
                 FZRANO =
2019-01-15 04:56 METAR KBID 150956Z AUTO 34008KT 10SM CLR M03/M09 A3005 RMK AO2 SLP181 T10281094
                 FZRANO =
2019-01-15 03:56 METAR KBID 150856Z AUTO 35008KT 10SM CLR M03/M09 A3005 RMK AO2 SLP180 T10281094
                 FZRANO =
2019-01-15 02:56 METAR KBID 150756Z AUTO 34007KT 10SM CLR M03/M09 A3006 RMK AO2 SLP183 T10281089
                 FZRANO =
2019-01-15 01:56 METAR KBID 150656Z AUTO 33007KT 10SM CLR M03/M09 A3006 RMK AO2 SLP185 T10281089
                 FZRANO =
2019-01-15 00:56 METAR KBID 150556Z AUTO 32006KT 10SM CLR M03/M08 RMK AO2 SLPNO 6//// T10281083
                 11022 21050 FZRANO $ =
2019-01-14 23:56 METAR KBID 150456Z AUTO 32005KT 10SM CLR M03/M08 A3008 RMK AO2 SLP190 T10281078
                 FZRANO =
2019-01-14 22:56 METAR KBID 150356Z AUTO 32004KT 10SM CLR M03/M07 A3010 RMK AO2 SLP195 T10331072
                 400001050 FZRANO =
2019-01-14 20:56 METAR KBID 150156Z AUTO 00000KT 10SM CLR M03/M06 A3010 RMK AO2 SLP199 T10331061
                 FZRANO =
2019-01-14 19:56 METAR KBID 150056Z AUTO 01003KT 10SM CLR M03/M06 A3011 RMK AO2 SLP200 T10281061
                 FZRANO =
2019-01-14 18:56 METAR KBID 142356Z AUTO 36005KT 10SM CLR M02/M06 A3012 RMK AO2 SLP202 6////
                 T10221061 10000 21022 FZRANO =

Support USWX by starting your Amazon purchase here.